sensor_id;sensor_type;location;lat;lon;timestamp;temperature;humidity
67101;DHT22;54019;61.746;16.106;2023-02-10T00:01:03;21.80;24.80
67101;DHT22;54019;61.746;16.106;2023-02-10T00:03:29;21.80;25.00
67101;DHT22;54019;61.746;16.106;2023-02-10T00:05:55;21.80;25.00
67101;DHT22;54019;61.746;16.106;2023-02-10T00:08:20;21.80;24.90
67101;DHT22;54019;61.746;16.106;2023-02-10T00:10:46;21.70;24.90
67101;DHT22;54019;61.746;16.106;2023-02-10T00:13:12;21.80;24.90
67101;DHT22;54019;61.746;16.106;2023-02-10T00:15:39;21.80;24.90
67101;DHT22;54019;61.746;16.106;2023-02-10T00:18:05;21.80;24.90
67101;DHT22;54019;61.746;16.106;2023-02-10T00:20:31;21.90;24.90
67101;DHT22;54019;61.746;16.106;2023-02-10T00:22:56;21.90;24.90
67101;DHT22;54019;61.746;16.106;2023-02-10T00:25:22;22.00;24.90
67101;DHT22;54019;61.746;16.106;2023-02-10T00:27:48;21.90;24.80
67101;DHT22;54019;61.746;16.106;2023-02-10T00:30:14;21.90;24.70
67101;DHT22;54019;61.746;16.106;2023-02-10T00:32:41;21.90;24.70
67101;DHT22;54019;61.746;16.106;2023-02-10T00:35:08;21.90;24.80
67101;DHT22;54019;61.746;16.106;2023-02-10T00:37:33;21.90;24.80
67101;DHT22;54019;61.746;16.106;2023-02-10T00:39:59;21.80;24.60
67101;DHT22;54019;61.746;16.106;2023-02-10T00:42:25;21.80;24.80
67101;DHT22;54019;61.746;16.106;2023-02-10T00:44:51;21.80;24.90
67101;DHT22;54019;61.746;16.106;2023-02-10T00:47:17;21.80;24.90
67101;DHT22;54019;61.746;16.106;2023-02-10T00:49:44;21.70;25.00
67101;DHT22;54019;61.746;16.106;2023-02-10T00:52:10;21.80;24.90
67101;DHT22;54019;61.746;16.106;2023-02-10T00:54:36;21.80;24.90
67101;DHT22;54019;61.746;16.106;2023-02-10T00:57:02;21.80;24.80
67101;DHT22;54019;61.746;16.106;2023-02-10T00:59:28;21.80;24.80
67101;DHT22;54019;61.746;16.106;2023-02-10T01:01:53;21.90;24.80
67101;DHT22;54019;61.746;16.106;2023-02-10T01:04:19;21.90;24.80
67101;DHT22;54019;61.746;16.106;2023-02-10T01:06:46;21.90;24.80
67101;DHT22;54019;61.746;16.106;2023-02-10T01:09:12;21.90;24.60
67101;DHT22;54019;61.746;16.106;2023-02-10T01:11:38;21.90;24.50
67101;DHT22;54019;61.746;16.106;2023-02-10T01:14:04;21.90;24.50
67101;DHT22;54019;61.746;16.106;2023-02-10T01:16:30;21.90;24.60
67101;DHT22;54019;61.746;16.106;2023-02-10T01:18:57;21.80;24.60
67101;DHT22;54019;61.746;16.106;2023-02-10T01:21:23;21.80;24.50
67101;DHT22;54019;61.746;16.106;2023-02-10T01:23:50;21.80;24.70
67101;DHT22;54019;61.746;16.106;2023-02-10T01:26:16;21.80;24.70
67101;DHT22;54019;61.746;16.106;2023-02-10T01:28:42;21.70;24.90
67101;DHT22;54019;61.746;16.106;2023-02-10T01:31:09;21.70;24.70
67101;DHT22;54019;61.746;16.106;2023-02-10T01:33:35;21.80;24.70
67101;DHT22;54019;61.746;16.106;2023-02-10T01:36:03;21.80;24.70
67101;DHT22;54019;61.746;16.106;2023-02-10T01:38:29;21.80;24.60
67101;DHT22;54019;61.746;16.106;2023-02-10T01:40:56;21.90;24.70
67101;DHT22;54019;61.746;16.106;2023-02-10T01:43:22;21.90;24.60
67101;DHT22;54019;61.746;16.106;2023-02-10T01:45:48;22.00;24.60
67101;DHT22;54019;61.746;16.106;2023-02-10T01:48:14;21.90;24.40
67101;DHT22;54019;61.746;16.106;2023-02-10T01:50:42;21.90;24.50
67101;DHT22;54019;61.746;16.106;2023-02-10T01:53:10;21.90;24.50
67101;DHT22;54019;61.746;16.106;2023-02-10T01:55:37;21.90;24.50
67101;DHT22;54019;61.746;16.106;2023-02-10T01:58:08;21.90;24.50
67101;DHT22;54019;61.746;16.106;2023-02-10T02:00:35;21.80;24.60
67101;DHT22;54019;61.746;16.106;2023-02-10T02:03:01;21.80;24.60
67101;DHT22;54019;61.746;16.106;2023-02-10T02:05:31;21.80;24.60
67101;DHT22;54019;61.746;16.106;2023-02-10T02:08:01;21.80;24.60
67101;DHT22;54019;61.746;16.106;2023-02-10T02:13:40;21.80;24.50
67101;DHT22;54019;61.746;16.106;2023-02-10T02:16:15;21.80;24.50
67101;DHT22;54019;61.746;16.106;2023-02-10T02:18:47;21.90;24.60
67101;DHT22;54019;61.746;16.106;2023-02-10T02:24:52;22.00;24.40
67101;DHT22;54019;61.746;16.106;2023-02-10T02:27:51;22.00;24.30
67101;DHT22;54019;61.746;16.106;2023-02-10T02:30:45;22.00;24.30
67101;DHT22;54019;61.746;16.106;2023-02-10T02:33:17;21.90;24.40
67101;DHT22;54019;61.746;16.106;2023-02-10T02:35:50;21.90;24.40
67101;DHT22;54019;61.746;16.106;2023-02-10T02:38:17;21.90;24.40
67101;DHT22;54019;61.746;16.106;2023-02-10T02:40:43;21.90;24.50
67101;DHT22;54019;61.746;16.106;2023-02-10T02:43:09;21.80;24.50
67101;DHT22;54019;61.746;16.106;2023-02-10T02:45:44;21.80;24.50
67101;DHT22;54019;61.746;16.106;2023-02-10T02:48:34;21.80;24.50
67101;DHT22;54019;61.746;16.106;2023-02-10T02:51:09;21.70;24.60
67101;DHT22;54019;61.746;16.106;2023-02-10T02:53:42;21.80;24.50
67101;DHT22;54019;61.746;16.106;2023-02-10T02:56:19;21.80;24.50
67101;DHT22;54019;61.746;16.106;2023-02-10T02:58:53;21.80;24.40
67101;DHT22;54019;61.746;16.106;2023-02-10T03:01:23;21.90;24.40
67101;DHT22;54019;61.746;16.106;2023-02-10T03:03:54;21.90;24.40
67101;DHT22;54019;61.746;16.106;2023-02-10T03:06:20;21.90;24.30
67101;DHT22;54019;61.746;16.106;2023-02-10T03:08:46;21.90;24.20
67101;DHT22;54019;61.746;16.106;2023-02-10T03:11:12;21.90;24.30
67101;DHT22;54019;61.746;16.106;2023-02-10T03:13:38;21.90;24.20
67101;DHT22;54019;61.746;16.106;2023-02-10T03:16:05;21.80;24.20
67101;DHT22;54019;61.746;16.106;2023-02-10T03:18:30;21.80;24.10
67101;DHT22;54019;61.746;16.106;2023-02-10T03:20:58;21.80;24.10
67101;DHT22;54019;61.746;16.106;2023-02-10T03:23:24;21.80;24.20
67101;DHT22;54019;61.746;16.106;2023-02-10T03:25:50;21.70;24.30
67101;DHT22;54019;61.746;16.106;2023-02-10T03:28:15;21.70;24.30
67101;DHT22;54019;61.746;16.106;2023-02-10T03:30:41;21.80;24.40
67101;DHT22;54019;61.746;16.106;2023-02-10T03:33:07;21.80;24.30
67101;DHT22;54019;61.746;16.106;2023-02-10T03:35:35;21.80;24.10
67101;DHT22;54019;61.746;16.106;2023-02-10T03:38:02;21.80;24.10
67101;DHT22;54019;61.746;16.106;2023-02-10T03:40:28;21.80;24.00
67101;DHT22;54019;61.746;16.106;2023-02-10T03:42:54;21.90;23.90
67101;DHT22;54019;61.746;16.106;2023-02-10T03:45:20;21.90;24.00
67101;DHT22;54019;61.746;16.106;2023-02-10T03:47:45;21.90;23.80
67101;DHT22;54019;61.746;16.106;2023-02-10T03:50:11;21.90;24.00
67101;DHT22;54019;61.746;16.106;2023-02-10T03:52:37;21.80;24.00
67101;DHT22;54019;61.746;16.106;2023-02-10T03:55:05;21.80;24.00
67101;DHT22;54019;61.746;16.106;2023-02-10T03:57:31;21.80;24.10
67101;DHT22;54019;61.746;16.106;2023-02-10T03:59:57;21.80;24.00
67101;DHT22;54019;61.746;16.106;2023-02-10T04:02:23;21.80;24.10
67101;DHT22;54019;61.746;16.106;2023-02-10T04:04:49;21.80;24.20
67101;DHT22;54019;61.746;16.106;2023-02-10T04:07:14;21.70;24.10
67101;DHT22;54019;61.746;16.106;2023-02-10T04:09:40;21.80;24.10
67101;DHT22;54019;61.746;16.106;2023-02-10T04:12:07;21.70;24.10
67101;DHT22;54019;61.746;16.106;2023-02-10T04:14:33;21.80;24.00
67101;DHT22;54019;61.746;16.106;2023-02-10T04:16:59;21.80;23.90
67101;DHT22;54019;61.746;16.106;2023-02-10T04:19:25;21.90;24.00
67101;DHT22;54019;61.746;16.106;2023-02-10T04:21:51;21.90;23.90
67101;DHT22;54019;61.746;16.106;2023-02-10T04:24:16;21.90;23.90
67101;DHT22;54019;61.746;16.106;2023-02-10T04:26:42;21.90;23.90
67101;DHT22;54019;61.746;16.106;2023-02-10T04:29:10;21.90;24.00
67101;DHT22;54019;61.746;16.106;2023-02-10T04:31:35;21.90;23.80
67101;DHT22;54019;61.746;16.106;2023-02-10T04:34:01;21.80;23.80
67101;DHT22;54019;61.746;16.106;2023-02-10T04:36:27;21.70;24.20
67101;DHT22;54019;61.746;16.106;2023-02-10T04:38:53;21.80;24.10
67101;DHT22;54019;61.746;16.106;2023-02-10T04:41:19;21.70;24.30
67101;DHT22;54019;61.746;16.106;2023-02-10T04:43:44;21.70;24.30
67101;DHT22;54019;61.746;16.106;2023-02-10T04:46:12;21.70;24.30
67101;DHT22;54019;61.746;16.106;2023-02-10T04:48:38;21.80;24.40
67101;DHT22;54019;61.746;16.106;2023-02-10T04:51:07;21.80;24.30
67101;DHT22;54019;61.746;16.106;2023-02-10T04:53:33;21.80;24.30
67101;DHT22;54019;61.746;16.106;2023-02-10T04:55:59;21.90;24.30
67101;DHT22;54019;61.746;16.106;2023-02-10T04:58:24;21.90;24.00
67101;DHT22;54019;61.746;16.106;2023-02-10T05:00:50;21.90;24.20
67101;DHT22;54019;61.746;16.106;2023-02-10T05:03:17;21.90;23.90
67101;DHT22;54019;61.746;16.106;2023-02-10T05:05:43;21.90;24.10
67101;DHT22;54019;61.746;16.106;2023-02-10T05:08:09;21.90;24.20
67101;DHT22;54019;61.746;16.106;2023-02-10T05:10:35;21.90;24.20
67101;DHT22;54019;61.746;16.106;2023-02-10T05:13:01;21.90;24.20
67101;DHT22;54019;61.746;16.106;2023-02-10T05:15:26;21.80;24.20
67101;DHT22;54019;61.746;16.106;2023-02-10T05:17:52;21.80;24.10
67101;DHT22;54019;61.746;16.106;2023-02-10T05:20:20;21.80;24.20
67101;DHT22;54019;61.746;16.106;2023-02-10T05:22:46;21.80;24.30
67101;DHT22;54019;61.746;16.106;2023-02-10T05:25:12;21.70;24.20
67101;DHT22;54019;61.746;16.106;2023-02-10T05:27:38;21.70;24.20
67101;DHT22;54019;61.746;16.106;2023-02-10T05:30:05;21.70;24.30
67101;DHT22;54019;61.746;16.106;2023-02-10T05:32:31;21.80;24.30
67101;DHT22;54019;61.746;16.106;2023-02-10T05:34:57;21.80;24.20
67101;DHT22;54019;61.746;16.106;2023-02-10T05:37:24;21.80;24.10
67101;DHT22;54019;61.746;16.106;2023-02-10T05:39:50;21.90;24.20
67101;DHT22;54019;61.746;16.106;2023-02-10T05:42:16;21.90;24.10
67101;DHT22;54019;61.746;16.106;2023-02-10T05:44:41;21.90;24.10
67101;DHT22;54019;61.746;16.106;2023-02-10T05:47:07;21.90;24.10
67101;DHT22;54019;61.746;16.106;2023-02-10T05:49:33;21.80;24.00
67101;DHT22;54019;61.746;16.106;2023-02-10T05:51:59;21.80;24.20
67101;DHT22;54019;61.746;16.106;2023-02-10T05:54:26;21.80;24.10
67101;DHT22;54019;61.746;16.106;2023-02-10T05:56:52;21.80;24.30
67101;DHT22;54019;61.746;16.106;2023-02-10T05:59:17;21.80;24.50
67101;DHT22;54019;61.746;16.106;2023-02-10T06:01:43;21.70;24.60
67101;DHT22;54019;61.746;16.106;2023-02-10T06:04:10;21.70;24.50
67101;DHT22;54019;61.746;16.106;2023-02-10T06:06:35;21.80;24.60
67101;DHT22;54019;61.746;16.106;2023-02-10T06:09:01;21.80;24.60
67101;DHT22;54019;61.746;16.106;2023-02-10T06:11:28;21.80;25.40
67101;DHT22;54019;61.746;16.106;2023-02-10T06:13:54;21.80;24.80
67101;DHT22;54019;61.746;16.106;2023-02-10T06:16:20;21.90;24.80
67101;DHT22;54019;61.746;16.106;2023-02-10T06:18:46;22.00;25.30
67101;DHT22;54019;61.746;16.106;2023-02-10T06:21:12;22.00;25.40
67101;DHT22;54019;61.746;16.106;2023-02-10T06:23:37;22.00;25.20
67101;DHT22;54019;61.746;16.106;2023-02-10T06:26:03;22.00;25.20
67101;DHT22;54019;61.746;16.106;2023-02-10T06:28:31;21.90;25.50
67101;DHT22;54019;61.746;16.106;2023-02-10T06:30:57;21.80;25.40
67101;DHT22;54019;61.746;16.106;2023-02-10T06:33:23;21.80;25.60
67101;DHT22;54019;61.746;16.106;2023-02-10T06:35:49;21.80;25.60
67101;DHT22;54019;61.746;16.106;2023-02-10T06:38:15;21.80;25.50
67101;DHT22;54019;61.746;16.106;2023-02-10T06:40:41;21.70;25.60
67101;DHT22;54019;61.746;16.106;2023-02-10T06:43:07;21.70;25.70
67101;DHT22;54019;61.746;16.106;2023-02-10T06:45:34;21.70;25.80
67101;DHT22;54019;61.746;16.106;2023-02-10T06:48:00;21.80;25.90
67101;DHT22;54019;61.746;16.106;2023-02-10T06:50:25;21.80;25.80
67101;DHT22;54019;61.746;16.106;2023-02-10T06:52:51;21.80;25.80
67101;DHT22;54019;61.746;16.106;2023-02-10T06:55:17;21.90;25.90
67101;DHT22;54019;61.746;16.106;2023-02-10T06:57:43;21.90;25.80
67101;DHT22;54019;61.746;16.106;2023-02-10T07:00:11;21.90;25.70
67101;DHT22;54019;61.746;16.106;2023-02-10T07:02:39;21.90;25.40
67101;DHT22;54019;61.746;16.106;2023-02-10T07:05:07;21.90;25.40
67101;DHT22;54019;61.746;16.106;2023-02-10T07:07:33;21.90;25.60
67101;DHT22;54019;61.746;16.106;2023-02-10T07:09:59;21.90;25.40
67101;DHT22;54019;61.746;16.106;2023-02-10T07:12:25;21.80;25.40
67101;DHT22;54019;61.746;16.106;2023-02-10T07:14:51;21.80;25.50
67101;DHT22;54019;61.746;16.106;2023-02-10T07:17:17;21.80;25.40
67101;DHT22;54019;61.746;16.106;2023-02-10T07:19:44;21.70;25.60
67101;DHT22;54019;61.746;16.106;2023-02-10T07:22:10;21.70;31.80
67101;DHT22;54019;61.746;16.106;2023-02-10T07:24:36;21.70;34.10
67101;DHT22;54019;61.746;16.106;2023-02-10T07:27:02;21.70;30.90
67101;DHT22;54019;61.746;16.106;2023-02-10T07:29:28;21.70;30.80
67101;DHT22;54019;61.746;16.106;2023-02-10T07:31:54;21.70;30.20
67101;DHT22;54019;61.746;16.106;2023-02-10T07:34:20;21.70;31.10
67101;DHT22;54019;61.746;16.106;2023-02-10T07:36:47;21.60;30.80
67101;DHT22;54019;61.746;16.106;2023-02-10T07:39:13;21.60;31.10
67101;DHT22;54019;61.746;16.106;2023-02-10T07:41:39;21.60;31.60
67101;DHT22;54019;61.746;16.106;2023-02-10T07:44:05;21.60;31.20
67101;DHT22;54019;61.746;16.106;2023-02-10T07:46:30;21.60;31.70
67101;DHT22;54019;61.746;16.106;2023-02-10T07:48:56;21.60;33.00
67101;DHT22;54019;61.746;16.106;2023-02-10T07:51:22;21.60;30.90
67101;DHT22;54019;61.746;16.106;2023-02-10T07:53:49;21.60;29.70
67101;DHT22;54019;61.746;16.106;2023-02-10T07:56:15;21.70;29.50
67101;DHT22;54019;61.746;16.106;2023-02-10T07:58:40;21.80;29.00
67101;DHT22;54019;61.746;16.106;2023-02-10T08:01:07;21.80;28.80
67101;DHT22;54019;61.746;16.106;2023-02-10T08:03:33;21.90;28.30
67101;DHT22;54019;61.746;16.106;2023-02-10T08:05:59;22.00;28.10
67101;DHT22;54019;61.746;16.106;2023-02-10T08:08:25;22.00;28.00
67101;DHT22;54019;61.746;16.106;2023-02-10T08:10:52;22.00;27.40
67101;DHT22;54019;61.746;16.106;2023-02-10T08:13:18;22.00;27.40
67101;DHT22;54019;61.746;16.106;2023-02-10T08:15:44;22.00;27.10
67101;DHT22;54019;61.746;16.106;2023-02-10T08:18:10;21.90;26.90
67101;DHT22;54019;61.746;16.106;2023-02-10T08:20:35;21.90;27.40
67101;DHT22;54019;61.746;16.106;2023-02-10T08:23:01;21.90;26.80
67101;DHT22;54019;61.746;16.106;2023-02-10T08:25:27;21.90;26.90
67101;DHT22;54019;61.746;16.106;2023-02-10T08:27:55;21.90;26.90
67101;DHT22;54019;61.746;16.106;2023-02-10T08:30:20;22.00;26.90
67101;DHT22;54019;61.746;16.106;2023-02-10T08:32:46;22.00;26.90
67101;DHT22;54019;61.746;16.106;2023-02-10T08:35:12;22.00;26.50
67101;DHT22;54019;61.746;16.106;2023-02-10T08:37:38;22.20;26.80
67101;DHT22;54019;61.746;16.106;2023-02-10T08:40:04;22.20;26.10
67101;DHT22;54019;61.746;16.106;2023-02-10T08:42:30;22.20;26.00
67101;DHT22;54019;61.746;16.106;2023-02-10T08:44:58;22.20;26.10
67101;DHT22;54019;61.746;16.106;2023-02-10T08:47:23;22.20;26.20
67101;DHT22;54019;61.746;16.106;2023-02-10T08:49:49;22.20;26.10
67101;DHT22;54019;61.746;16.106;2023-02-10T08:52:15;22.30;26.20
67101;DHT22;54019;61.746;16.106;2023-02-10T08:54:41;22.30;26.20
67101;DHT22;54019;61.746;16.106;2023-02-10T08:57:07;22.30;25.60
67101;DHT22;54019;61.746;16.106;2023-02-10T08:59:33;22.20;25.90
67101;DHT22;54019;61.746;16.106;2023-02-10T09:02:00;22.20;25.70
67101;DHT22;54019;61.746;16.106;2023-02-10T09:04:27;22.20;25.80
67101;DHT22;54019;61.746;16.106;2023-02-10T09:06:52;22.30;25.80
67101;DHT22;54019;61.746;16.106;2023-02-10T09:09:20;22.30;25.90
67101;DHT22;54019;61.746;16.106;2023-02-10T09:11:46;22.40;25.80
67101;DHT22;54019;61.746;16.106;2023-02-10T09:14:12;22.40;25.50
67101;DHT22;54019;61.746;16.106;2023-02-10T09:16:38;22.50;25.50
67101;DHT22;54019;61.746;16.106;2023-02-10T09:19:06;22.50;25.30
67101;DHT22;54019;61.746;16.106;2023-02-10T09:21:32;22.50;25.20
67101;DHT22;54019;61.746;16.106;2023-02-10T09:23:57;22.60;25.20
67101;DHT22;54019;61.746;16.106;2023-02-10T09:26:23;22.60;25.20
67101;DHT22;54019;61.746;16.106;2023-02-10T09:28:49;22.60;25.20
67101;DHT22;54019;61.746;16.106;2023-02-10T09:31:15;22.60;25.20
67101;DHT22;54019;61.746;16.106;2023-02-10T09:33:41;22.60;24.90
67101;DHT22;54019;61.746;16.106;2023-02-10T09:36:12;22.60;25.10
67101;DHT22;54019;61.746;16.106;2023-02-10T09:38:38;22.60;25.10
67101;DHT22;54019;61.746;16.106;2023-02-10T09:41:12;22.60;25.20
67101;DHT22;54019;61.746;16.106;2023-02-10T09:44:00;22.60;25.10
67101;DHT22;54019;61.746;16.106;2023-02-10T09:46:45;22.70;25.30
67101;DHT22;54019;61.746;16.106;2023-02-10T09:49:23;22.70;25.00
67101;DHT22;54019;61.746;16.106;2023-02-10T09:52:11;22.70;24.90
67101;DHT22;54019;61.746;16.106;2023-02-10T09:54:38;22.80;25.00
67101;DHT22;54019;61.746;16.106;2023-02-10T09:57:08;22.80;24.90
67101;DHT22;54019;61.746;16.106;2023-02-10T09:59:36;22.90;24.90
67101;DHT22;54019;61.746;16.106;2023-02-10T10:02:12;22.90;24.60
67101;DHT22;54019;61.746;16.106;2023-02-10T10:04:39;23.00;24.50
67101;DHT22;54019;61.746;16.106;2023-02-10T10:07:20;23.00;24.50
67101;DHT22;54019;61.746;16.106;2023-02-10T10:09:54;23.00;24.80
67101;DHT22;54019;61.746;16.106;2023-02-10T10:12:23;23.00;24.90
67101;DHT22;54019;61.746;16.106;2023-02-10T10:14:49;22.90;24.70
67101;DHT22;54019;61.746;16.106;2023-02-10T10:17:34;23.00;25.00
67101;DHT22;54019;61.746;16.106;2023-02-10T10:20:15;22.90;24.90
67101;DHT22;54019;61.746;16.106;2023-02-10T10:22:54;22.90;24.60
67101;DHT22;54019;61.746;16.106;2023-02-10T10:28:21;22.90;24.10
67101;DHT22;54019;61.746;16.106;2023-02-10T10:30:56;22.90;23.80
67101;DHT22;54019;61.746;16.106;2023-02-10T10:33:26;23.00;24.10
67101;DHT22;54019;61.746;16.106;2023-02-10T10:35:54;23.00;24.10
67101;DHT22;54019;61.746;16.106;2023-02-10T10:38:23;23.00;24.10
67101;DHT22;54019;61.746;16.106;2023-02-10T10:40:53;23.10;24.20
67101;DHT22;54019;61.746;16.106;2023-02-10T10:43:23;23.10;24.00
67101;DHT22;54019;61.746;16.106;2023-02-10T10:45:53;23.10;24.10
67101;DHT22;54019;61.746;16.106;2023-02-10T10:48:22;23.10;24.10
67101;DHT22;54019;61.746;16.106;2023-02-10T10:50:48;23.10;24.30
67101;DHT22;54019;61.746;16.106;2023-02-10T10:53:15;23.00;24.10
67101;DHT22;54019;61.746;16.106;2023-02-10T10:55:47;23.00;24.20
67101;DHT22;54019;61.746;16.106;2023-02-10T10:58:23;23.00;24.30
67101;DHT22;54019;61.746;16.106;2023-02-10T11:00:51;23.00;24.00
67101;DHT22;54019;61.746;16.106;2023-02-10T11:03:17;23.00;24.10
67101;DHT22;54019;61.746;16.106;2023-02-10T11:05:43;23.00;24.20
67101;DHT22;54019;61.746;16.106;2023-02-10T11:08:22;23.00;24.30
67101;DHT22;54019;61.746;16.106;2023-02-10T11:10:54;23.00;24.20
67101;DHT22;54019;61.746;16.106;2023-02-10T11:13:22;23.00;24.10
67101;DHT22;54019;61.746;16.106;2023-02-10T11:15:47;23.00;24.20
67101;DHT22;54019;61.746;16.106;2023-02-10T11:18:18;23.00;24.10
67101;DHT22;54019;61.746;16.106;2023-02-10T11:20:56;23.00;24.00
67101;DHT22;54019;61.746;16.106;2023-02-10T11:23:22;23.00;24.10
67101;DHT22;54019;61.746;16.106;2023-02-10T11:25:57;23.00;24.10
67101;DHT22;54019;61.746;16.106;2023-02-10T11:28:26;23.00;24.20
67101;DHT22;54019;61.746;16.106;2023-02-10T11:30:56;23.00;24.20
67101;DHT22;54019;61.746;16.106;2023-02-10T11:33:25;23.00;24.20
67101;DHT22;54019;61.746;16.106;2023-02-10T11:35:53;22.90;24.20
67101;DHT22;54019;61.746;16.106;2023-02-10T11:38:23;22.90;24.20
67101;DHT22;54019;61.746;16.106;2023-02-10T11:40:51;22.90;24.30
67101;DHT22;54019;61.746;16.106;2023-02-10T11:43:19;22.90;24.30
67101;DHT22;54019;61.746;16.106;2023-02-10T11:45:53;22.90;24.10
67101;DHT22;54019;61.746;16.106;2023-02-10T11:48:21;22.90;24.30
67101;DHT22;54019;61.746;16.106;2023-02-10T11:50:47;22.90;24.30
67101;DHT22;54019;61.746;16.106;2023-02-10T11:53:22;22.90;24.20
67101;DHT22;54019;61.746;16.106;2023-02-10T11:55:55;22.90;24.20
67101;DHT22;54019;61.746;16.106;2023-02-10T11:58:45;23.00;24.80
67101;DHT22;54019;61.746;16.106;2023-02-10T12:01:16;23.00;24.00
67101;DHT22;54019;61.746;16.106;2023-02-10T12:03:56;23.00;24.10
67101;DHT22;54019;61.746;16.106;2023-02-10T12:06:30;22.90;24.10
67101;DHT22;54019;61.746;16.106;2023-02-10T12:09:04;22.90;24.00
67101;DHT22;54019;61.746;16.106;2023-02-10T12:11:39;22.80;24.00
67101;DHT22;54019;61.746;16.106;2023-02-10T12:14:37;22.80;24.00
67101;DHT22;54019;61.746;16.106;2023-02-10T12:17:12;22.80;24.00
67101;DHT22;54019;61.746;16.106;2023-02-10T12:19:47;22.80;24.00
67101;DHT22;54019;61.746;16.106;2023-02-10T12:22:20;22.70;24.10
67101;DHT22;54019;61.746;16.106;2023-02-10T12:25:01;22.70;24.20
67101;DHT22;54019;61.746;16.106;2023-02-10T12:27:38;22.70;24.20
67101;DHT22;54019;61.746;16.106;2023-02-10T12:30:19;22.70;24.40
67101;DHT22;54019;61.746;16.106;2023-02-10T12:32:54;22.80;24.10
67101;DHT22;54019;61.746;16.106;2023-02-10T12:35:33;22.80;24.10
67101;DHT22;54019;61.746;16.106;2023-02-10T12:38:14;22.80;24.00
67101;DHT22;54019;61.746;16.106;2023-02-10T12:40:58;22.80;24.10
67101;DHT22;54019;61.746;16.106;2023-02-10T12:43:36;22.80;24.00
67101;DHT22;54019;61.746;16.106;2023-02-10T12:46:17;22.80;24.00
67101;DHT22;54019;61.746;16.106;2023-02-10T12:49:06;22.80;24.10
67101;DHT22;54019;61.746;16.106;2023-02-10T12:51:56;22.80;24.00
67101;DHT22;54019;61.746;16.106;2023-02-10T12:54:26;22.70;24.30
67101;DHT22;54019;61.746;16.106;2023-02-10T12:56:58;22.70;24.30
67101;DHT22;54019;61.746;16.106;2023-02-10T12:59:28;22.60;24.20
67101;DHT22;54019;61.746;16.106;2023-02-10T13:02:00;22.70;24.40
67101;DHT22;54019;61.746;16.106;2023-02-10T13:04:30;22.70;24.90
67101;DHT22;54019;61.746;16.106;2023-02-10T13:06:59;22.70;24.90
67101;DHT22;54019;61.746;16.106;2023-02-10T13:09:30;22.70;25.60
67101;DHT22;54019;61.746;16.106;2023-02-10T13:12:10;22.70;25.40
67101;DHT22;54019;61.746;16.106;2023-02-10T13:14:37;22.80;25.70
67101;DHT22;54019;61.746;16.106;2023-02-10T13:17:07;22.80;25.50
67101;DHT22;54019;61.746;16.106;2023-02-10T13:19:39;22.80;25.70
67101;DHT22;54019;61.746;16.106;2023-02-10T13:22:09;22.80;25.30
67101;DHT22;54019;61.746;16.106;2023-02-10T13:24:42;22.80;26.00
67101;DHT22;54019;61.746;16.106;2023-02-10T13:27:27;22.70;26.80
67101;DHT22;54019;61.746;16.106;2023-02-10T13:30:06;22.70;25.70
67101;DHT22;54019;61.746;16.106;2023-02-10T13:32:52;22.70;26.10
67101;DHT22;54019;61.746;16.106;2023-02-10T13:35:22;22.70;26.30
67101;DHT22;54019;61.746;16.106;2023-02-10T13:37:51;22.60;26.50
67101;DHT22;54019;61.746;16.106;2023-02-10T13:40:19;22.60;26.80
67101;DHT22;54019;61.746;16.106;2023-02-10T13:42:48;22.70;27.00
67101;DHT22;54019;61.746;16.106;2023-02-10T13:45:17;22.70;27.10
67101;DHT22;54019;61.746;16.106;2023-02-10T13:47:51;22.70;27.10
67101;DHT22;54019;61.746;16.106;2023-02-10T13:50:21;22.80;27.10
67101;DHT22;54019;61.746;16.106;2023-02-10T13:52:50;22.90;27.00
67101;DHT22;54019;61.746;16.106;2023-02-10T13:58:30;22.90;26.90
67101;DHT22;54019;61.746;16.106;2023-02-10T14:00:56;22.90;26.50
67101;DHT22;54019;61.746;16.106;2023-02-10T14:03:26;22.80;26.60
67101;DHT22;54019;61.746;16.106;2023-02-10T14:05:55;22.80;26.60
67101;DHT22;54019;61.746;16.106;2023-02-10T14:08:42;22.80;26.70
67101;DHT22;54019;61.746;16.106;2023-02-10T14:11:26;22.80;26.90
67101;DHT22;54019;61.746;16.106;2023-02-10T14:13:58;22.80;26.90
67101;DHT22;54019;61.746;16.106;2023-02-10T14:16:29;22.80;27.00
67101;DHT22;54019;61.746;16.106;2023-02-10T14:19:00;22.70;27.10
67101;DHT22;54019;61.746;16.106;2023-02-10T14:21:37;22.70;27.00
67101;DHT22;54019;61.746;16.106;2023-02-10T14:24:05;22.70;27.30
67101;DHT22;54019;61.746;16.106;2023-02-10T14:26:34;22.80;27.50
67101;DHT22;54019;61.746;16.106;2023-02-10T14:29:01;22.80;27.10
67101;DHT22;54019;61.746;16.106;2023-02-10T14:31:29;22.90;27.90
67101;DHT22;54019;61.746;16.106;2023-02-10T14:33:59;23.00;28.70
67101;DHT22;54019;61.746;16.106;2023-02-10T14:36:26;23.10;28.10
67101;DHT22;54019;61.746;16.106;2023-02-10T14:38:56;23.30;29.10
67101;DHT22;54019;61.746;16.106;2023-02-10T14:41:23;23.40;28.70
67101;DHT22;54019;61.746;16.106;2023-02-10T14:43:50;23.50;28.80
67101;DHT22;54019;61.746;16.106;2023-02-10T14:46:19;23.60;28.60
67101;DHT22;54019;61.746;16.106;2023-02-10T14:48:46;23.50;28.40
67101;DHT22;54019;61.746;16.106;2023-02-10T14:51:21;23.50;28.70
67101;DHT22;54019;61.746;16.106;2023-02-10T14:53:47;23.50;27.70
67101;DHT22;54019;61.746;16.106;2023-02-10T14:56:16;23.50;27.50
67101;DHT22;54019;61.746;16.106;2023-02-10T14:58:43;23.40;26.70
67101;DHT22;54019;61.746;16.106;2023-02-10T15:01:13;23.30;26.30
67101;DHT22;54019;61.746;16.106;2023-02-10T15:03:41;23.30;25.70
67101;DHT22;54019;61.746;16.106;2023-02-10T15:06:08;23.20;25.40
67101;DHT22;54019;61.746;16.106;2023-02-10T15:08:39;23.20;25.40
67101;DHT22;54019;61.746;16.106;2023-02-10T15:11:09;23.30;25.50
67101;DHT22;54019;61.746;16.106;2023-02-10T15:13:40;23.20;25.50
67101;DHT22;54019;61.746;16.106;2023-02-10T15:16:10;23.30;25.50
67101;DHT22;54019;61.746;16.106;2023-02-10T15:18:41;23.30;25.30
67101;DHT22;54019;61.746;16.106;2023-02-10T15:21:25;23.30;25.00
67101;DHT22;54019;61.746;16.106;2023-02-10T15:23:53;23.30;24.80
67101;DHT22;54019;61.746;16.106;2023-02-10T15:26:22;23.30;24.60
67101;DHT22;54019;61.746;16.106;2023-02-10T15:29:00;23.20;24.60
67101;DHT22;54019;61.746;16.106;2023-02-10T15:31:27;23.10;24.60
67101;DHT22;54019;61.746;16.106;2023-02-10T15:33:55;23.00;24.50
67101;DHT22;54019;61.746;16.106;2023-02-10T15:36:23;23.00;24.60
67101;DHT22;54019;61.746;16.106;2023-02-10T15:38:53;22.90;24.70